CheckWX is a tool to help pilots better visualize weather data.  It is not intended as a substitute for an official pre-flight weather briefing.

08:29:53 UTC

KPNC TAF
Ponca City Regional Airport
Ponca City, Oklahoma, USA
KPNC 270520Z 2706/2806 20005KT P6SM SCT080 SCT150 FM271400 21012KT P6SM SCT080 SCT150 FM272000 26011KT P6SM SCT080 BKN150 FM272200 34011KT P6SM SCT080 SCT150

Feb-27@
06:00 UTC

Feb-27 @ 06:00 UTC

Feb-27@
14:00 UTC

Feb-27 @ 14:00 UTC

KPNC 270520Z 2706/2806 20005KT P6SM SCT080 SCT150
Wind
  • 200° at 5 KTS
Cloud Levels
  • Scattered at 8,000' AGL
  • Scattered at 15,000' AGL

Feb-27@
14:00 UTC

Feb-27 @ 14:00 UTC

Feb-27@
20:00 UTC

Feb-27 @ 20:00 UTC

FM271400 21012KT P6SM SCT080 SCT150

From

From Standard forecast or significant change

Wind
  • 210° at 12 KTS
Cloud Levels
  • Scattered at 8,000' AGL
  • Scattered at 15,000' AGL

Feb-27@
20:00 UTC

Feb-27 @ 20:00 UTC

Feb-27@
22:00 UTC

Feb-27 @ 22:00 UTC

FM272000 26011KT P6SM SCT080 BKN150

From

From Standard forecast or significant change

Wind
  • 260° at 11 KTS
Cloud Levels
  • Scattered at 8,000' AGL
  • Broken at 15,000' AGL

Feb-27@
22:00 UTC

Feb-27 @ 22:00 UTC

Feb-28@
06:00 UTC

Feb-28 @ 06:00 UTC

FM272200 34011KT P6SM SCT080 SCT150

From

From Standard forecast or significant change

Wind
  • 340° at 11 KTS
Cloud Levels
  • Scattered at 8,000' AGL
  • Scattered at 15,000' AGL